createdAt,value
2023-08-10T00:00:00.930Z,39.32
2023-08-10T00:01:00.969Z,38.03
2023-08-10T00:02:00.911Z,37.87
2023-08-10T00:03:00.984Z,41.25
2023-08-10T00:04:01.037Z,42.86
2023-08-10T00:05:00.889Z,38.51
2023-08-10T00:06:00.877Z,38.99
2023-08-10T00:07:00.879Z,37.54
2023-08-10T00:08:00.867Z,40.12
2023-08-10T00:09:00.875Z,41.09
2023-08-10T00:10:00.846Z,40.77
2023-08-10T00:11:00.837Z,37.71
2023-08-10T00:12:00.830Z,37.54
2023-08-10T00:13:00.850Z,47.70
2023-08-10T00:14:00.836Z,43.34
2023-08-10T00:15:00.803Z,38.35
2023-08-10T00:16:00.823Z,37.38
2023-08-10T00:17:00.836Z,40.44
2023-08-10T00:18:00.857Z,41.89
2023-08-10T00:19:00.784Z,38.67
2023-08-10T00:20:00.775Z,37.71
2023-08-10T00:21:00.768Z,38.03
2023-08-10T00:22:00.756Z,44.15
2023-08-10T00:23:00.770Z,46.25
2023-08-10T00:24:00.741Z,39.32
2023-08-10T00:25:00.733Z,39.64
2023-08-10T00:26:00.726Z,37.54
2023-08-10T00:27:00.717Z,38.51
2023-08-10T00:28:00.726Z,40.77
2023-08-10T00:29:00.714Z,37.38
2023-08-10T00:30:00.716Z,37.22
2023-08-10T00:31:00.743Z,42.70
2023-08-10T00:32:00.680Z,42.38
2023-08-10T00:33:00.732Z,38.67
2023-08-10T00:34:00.664Z,43.18
2023-08-10T00:35:00.682Z,43.18
2023-08-10T00:36:00.650Z,39.96
2023-08-10T00:37:00.666Z,37.87
2023-08-10T00:38:00.654Z,37.87
2023-08-10T00:39:00.648Z,45.44
2023-08-10T00:40:00.669Z,37.71
2023-08-10T00:41:00.602Z,41.09
2023-08-10T00:42:00.666Z,38.35
2023-08-10T00:43:00.580Z,37.71
2023-08-10T00:44:01.584Z,38.19
2023-08-10T00:45:00.583Z,37.71
2023-08-10T00:46:00.622Z,39.32
2023-08-10T00:47:00.603Z,38.51
2023-08-10T00:48:00.618Z,37.06
2023-08-10T00:49:00.548Z,36.42
2023-08-10T00:50:00.585Z,37.22
2023-08-10T00:51:00.558Z,37.06
2023-08-10T00:52:00.544Z,37.06
2023-08-10T00:53:00.528Z,36.58
2023-08-10T00:54:00.508Z,42.38
2023-08-10T00:55:00.490Z,38.83
2023-08-10T00:56:00.587Z,39.16
2023-08-10T00:57:00.546Z,45.44
2023-08-10T00:58:00.473Z,47.21
2023-08-10T00:59:00.464Z,46.08
2023-08-10T01:00:00.453Z,36.74
2023-08-10T01:01:07.403Z,36.74
2023-08-10T01:02:00.470Z,36.90
2023-08-10T01:03:00.530Z,38.51
2023-08-10T01:04:00.459Z,39.80
2023-08-10T01:05:00.427Z,36.58
2023-08-10T01:06:00.437Z,36.58
2023-08-10T01:07:00.403Z,37.22
2023-08-10T01:08:00.399Z,37.22
2023-08-10T01:09:00.388Z,37.87
2023-08-10T01:10:00.391Z,37.38
2023-08-10T01:11:00.401Z,36.90
2023-08-10T01:12:00.450Z,38.83
2023-08-10T01:13:00.346Z,37.06
2023-08-10T01:14:01.354Z,37.54
2023-08-10T01:15:00.353Z,36.42
2023-08-10T01:16:00.385Z,36.90
2023-08-10T01:17:00.330Z,38.03
2023-08-10T01:18:00.394Z,47.70
2023-08-10T01:19:00.314Z,39.16
2023-08-10T01:20:00.343Z,38.35
2023-08-10T01:21:00.321Z,38.51
2023-08-10T01:22:00.303Z,42.38
2023-08-10T01:23:00.308Z,42.06
2023-08-10T01:24:00.276Z,42.06
2023-08-10T01:25:00.300Z,40.44
2023-08-10T01:26:00.286Z,39.16
2023-08-10T01:27:00.253Z,39.16
2023-08-10T01:28:00.240Z,44.79
2023-08-10T01:29:00.232Z,39.32
2023-08-10T01:30:00.262Z,37.87
2023-08-10T01:31:00.216Z,37.87
2023-08-10T01:32:00.286Z,43.67
2023-08-10T01:33:01.232Z,48.18
2023-08-10T01:34:00.199Z,38.19
2023-08-10T01:35:00.223Z,38.35
2023-08-10T01:36:00.196Z,39.80
2023-08-10T01:37:00.178Z,43.18
2023-08-10T01:38:00.177Z,41.57
2023-08-10T01:39:00.356Z,39.80
2023-08-10T01:40:00.184Z,39.64
2023-08-10T01:41:00.146Z,39.80
2023-08-10T01:42:00.133Z,39.80
2023-08-10T01:43:00.125Z,38.03
2023-08-10T01:44:00.365Z,38.83
2023-08-10T01:45:00.138Z,40.28
2023-08-10T01:46:00.172Z,39.32
2023-08-10T01:47:00.098Z,42.38
2023-08-10T01:48:00.179Z,37.54
2023-08-10T01:49:00.403Z,38.67
2023-08-10T01:50:00.129Z,41.09
2023-08-10T01:51:00.067Z,39.48
2023-08-10T01:52:00.061Z,40.77
2023-08-10T01:53:01.059Z,39.80
2023-08-10T01:54:00.395Z,47.70
2023-08-10T01:55:00.050Z,39.32
2023-08-10T01:56:00.052Z,48.34
2023-08-10T01:57:00.016Z,47.21
2023-08-10T01:58:00.032Z,39.80
2023-08-10T01:59:00.398Z,43.02
2023-08-10T01:59:59.996Z,39.80
2023-08-10T02:00:59.986Z,40.44
2023-08-10T02:01:59.991Z,37.38
2023-08-10T02:03:00.020Z,37.22
2023-08-10T02:03:59.981Z,38.03
2023-08-10T02:04:59.955Z,39.64
2023-08-10T02:05:59.943Z,49.15
2023-08-10T02:06:59.935Z,39.32
2023-08-10T02:07:59.955Z,38.35
2023-08-10T02:08:59.934Z,37.87
2023-08-10T02:09:59.920Z,39.32
2023-08-10T02:10:59.922Z,40.93
2023-08-10T02:11:59.904Z,38.67
2023-08-10T02:12:59.923Z,39.16
2023-08-10T02:13:59.888Z,38.99
2023-08-10T02:14:59.890Z,40.28
2023-08-10T02:15:59.913Z,37.87
2023-08-10T02:17:00.892Z,38.35
2023-08-10T02:17:59.944Z,37.22
2023-08-10T02:18:59.848Z,37.71
2023-08-10T02:19:59.849Z,41.57
2023-08-10T02:20:59.843Z,49.95
2023-08-10T02:21:59.888Z,46.73
2023-08-10T02:22:59.813Z,39.16
2023-08-10T02:23:59.820Z,39.16
2023-08-10T02:24:59.800Z,37.87
2023-08-10T02:25:59.795Z,41.25
2023-08-10T02:26:59.813Z,38.83
2023-08-10T02:27:59.780Z,42.38
2023-08-10T02:28:59.774Z,38.83
2023-08-10T02:29:59.762Z,37.71
2023-08-10T02:30:59.811Z,37.87
2023-08-10T02:31:59.795Z,45.44
2023-08-10T02:32:59.787Z,41.41
2023-08-10T02:33:59.745Z,38.83
2023-08-10T02:34:59.724Z,38.83
2023-08-10T02:35:59.745Z,40.93
2023-08-10T02:36:59.749Z,38.67
2023-08-10T02:37:59.700Z,38.19
2023-08-10T02:38:59.697Z,39.80
2023-08-10T02:39:59.688Z,41.73
2023-08-10T02:40:59.711Z,46.25
2023-08-10T02:41:59.668Z,53.01
2023-08-10T02:42:59.660Z,50.27
2023-08-10T02:43:59.652Z,48.66
2023-08-10T02:44:59.691Z,38.51
2023-08-10T02:45:59.691Z,43.02
2023-08-10T02:46:59.668Z,45.60
2023-08-10T02:47:59.643Z,46.41
2023-08-10T02:48:59.631Z,42.54
2023-08-10T02:49:59.678Z,40.77
2023-08-10T02:50:59.628Z,36.74
2023-08-10T02:51:59.618Z,39.80
2023-08-10T02:52:59.595Z,45.12
2023-08-10T02:53:59.580Z,38.83
2023-08-10T02:54:59.599Z,43.51
2023-08-10T02:55:59.585Z,41.41
2023-08-10T02:56:59.558Z,40.44
2023-08-10T02:57:59.547Z,41.89
2023-08-10T02:58:59.556Z,50.92
2023-08-10T02:59:59.564Z,43.02
2023-08-10T03:00:59.550Z,45.76
2023-08-10T03:01:59.525Z,40.93
2023-08-10T03:02:59.534Z,40.44
2023-08-10T03:03:59.576Z,44.47
2023-08-10T03:04:59.518Z,43.34
2023-08-10T03:05:59.493Z,43.34
2023-08-10T03:06:59.466Z,45.28
2023-08-10T03:08:00.482Z,45.44
2023-08-10T03:08:59.462Z,42.54
2023-08-10T03:09:59.482Z,44.96
2023-08-10T03:10:59.457Z,45.12
2023-08-10T03:11:59.438Z,43.34
2023-08-10T03:12:59.433Z,45.12
2023-08-10T03:13:59.461Z,54.46
2023-08-10T03:14:59.445Z,48.98
2023-08-10T03:15:59.458Z,48.98
2023-08-10T03:16:59.463Z,41.89
2023-08-10T03:17:59.438Z,45.60
2023-08-10T03:18:59.413Z,52.21
2023-08-10T03:19:59.375Z,41.25
2023-08-10T03:20:59.363Z,41.57
2023-08-10T03:21:59.360Z,52.37
2023-08-10T03:22:59.360Z,49.15
2023-08-10T03:23:59.366Z,46.89
2023-08-10T03:24:59.334Z,48.18
2023-08-10T03:25:59.323Z,40.77
2023-08-10T03:26:59.321Z,40.77
2023-08-10T03:27:59.337Z,44.15
2023-08-10T03:28:59.329Z,46.41
2023-08-10T03:29:59.294Z,50.92
2023-08-10T03:30:59.306Z,55.27
2023-08-10T03:31:59.291Z,45.60
2023-08-10T03:32:59.336Z,51.08
2023-08-10T03:33:59.270Z,55.11
2023-08-10T03:34:59.255Z,47.05
2023-08-10T03:35:59.248Z,55.43
2023-08-10T03:36:59.231Z,58.81
2023-08-10T03:37:59.299Z,52.05
2023-08-10T03:38:59.230Z,48.98
2023-08-10T03:39:59.219Z,50.43
2023-08-10T03:40:59.211Z,54.30
2023-08-10T03:41:59.222Z,54.30
2023-08-10T03:42:59.218Z,56.07
2023-08-10T03:43:59.185Z,53.50
2023-08-10T03:44:59.168Z,53.33
2023-08-10T03:45:59.178Z,54.95
2023-08-10T03:46:59.180Z,48.50
2023-08-10T03:47:59.216Z,52.53
2023-08-10T03:48:59.137Z,44.96
2023-08-10T03:49:59.136Z,50.27
2023-08-10T03:50:59.132Z,49.63
2023-08-10T03:51:59.145Z,50.27
2023-08-10T03:52:59.141Z,52.53
2023-08-10T03:53:59.107Z,42.06
2023-08-10T03:54:59.116Z,48.34
2023-08-10T03:55:59.092Z,40.61
2023-08-10T03:56:59.112Z,48.98
2023-08-10T03:57:59.082Z,49.63
2023-08-10T03:58:59.073Z,42.06
2023-08-10T03:59:59.070Z,46.41
2023-08-10T04:00:59.214Z,53.50
2023-08-10T04:01:59.071Z,46.25
2023-08-10T04:02:59.090Z,50.76
2023-08-10T04:03:59.495Z,49.31
2023-08-10T04:04:59.020Z,46.25
2023-08-10T04:05:59.066Z,53.82
2023-08-10T04:06:59.014Z,54.95
2023-08-10T04:07:59.012Z,52.53
2023-08-10T04:08:58.995Z,53.66
2023-08-10T04:09:58.990Z,55.43
2023-08-10T04:10:59.031Z,51.40
2023-08-10T04:11:58.975Z,47.05
2023-08-10T04:12:58.982Z,51.56
2023-08-10T04:13:58.965Z,53.33
2023-08-10T04:14:58.947Z,50.27
2023-08-10T04:15:58.973Z,51.08
2023-08-10T04:16:59.020Z,58.65
2023-08-10T04:17:58.988Z,48.18
2023-08-10T04:18:58.923Z,56.24
2023-08-10T04:19:58.949Z,48.98
2023-08-10T04:20:58.933Z,55.27
2023-08-10T04:21:58.900Z,56.07
2023-08-10T04:22:58.896Z,50.11
2023-08-10T04:23:58.890Z,54.30
2023-08-10T04:24:58.898Z,58.65
2023-08-10T04:25:58.900Z,56.72
2023-08-10T04:26:58.858Z,45.92
2023-08-10T04:27:58.847Z,54.30
2023-08-10T04:28:58.836Z,55.43
2023-08-10T04:29:58.861Z,46.89
2023-08-10T04:30:58.848Z,55.43
2023-08-10T04:31:58.820Z,49.79
2023-08-10T04:32:58.854Z,52.69
2023-08-10T04:33:58.805Z,51.24
2023-08-10T04:34:58.852Z,49.15
2023-08-10T04:35:58.795Z,50.60
2023-08-10T04:36:58.792Z,55.59
2023-08-10T04:37:58.776Z,53.82
2023-08-10T04:38:58.793Z,53.01
2023-08-10T04:39:58.791Z,51.56
2023-08-10T04:40:58.757Z,52.37
2023-08-10T04:41:58.745Z,48.82
2023-08-10T04:42:58.740Z,54.62
2023-08-10T04:43:58.905Z,50.92
2023-08-10T04:44:58.718Z,51.40
2023-08-10T04:45:58.755Z,46.41
2023-08-10T04:46:58.704Z,57.85
2023-08-10T04:47:58.714Z,58.81
2023-08-10T04:48:58.722Z,57.69
2023-08-10T04:49:58.682Z,56.40
2023-08-10T04:50:58.668Z,51.72
2023-08-10T04:51:58.668Z,53.82
2023-08-10T04:52:58.651Z,53.50
2023-08-10T04:53:58.673Z,51.24
2023-08-10T04:54:58.659Z,54.62
2023-08-10T04:55:58.637Z,52.21
2023-08-10T04:56:58.619Z,52.37
2023-08-10T04:57:58.639Z,51.40
2023-08-10T04:58:58.630Z,52.21
2023-08-10T04:59:58.597Z,58.01
2023-08-10T05:00:58.589Z,51.56
2023-08-10T05:01:58.598Z,49.31
2023-08-10T05:02:58.684Z,47.53
2023-08-10T05:03:58.597Z,48.82
2023-08-10T05:04:58.560Z,52.69
2023-08-10T05:05:58.551Z,57.69
2023-08-10T05:06:58.542Z,52.05
2023-08-10T05:07:58.554Z,57.69
2023-08-10T05:08:58.527Z,52.85
2023-08-10T05:09:58.521Z,45.92
2023-08-10T05:10:58.514Z,45.60
2023-08-10T05:11:58.505Z,54.14
2023-08-10T05:12:58.532Z,51.40
2023-08-10T05:13:58.495Z,47.21
2023-08-10T05:14:58.485Z,45.92
2023-08-10T05:15:58.495Z,51.88
2023-08-10T05:16:58.527Z,53.82
2023-08-10T05:17:58.531Z,53.66
2023-08-10T05:18:58.455Z,42.86
2023-08-10T05:19:58.451Z,43.99
2023-08-10T05:20:58.443Z,53.50
2023-08-10T05:21:58.457Z,49.63
2023-08-10T05:22:58.421Z,50.60
2023-08-10T05:23:58.415Z,43.83
2023-08-10T05:24:59.416Z,51.88
2023-08-10T05:25:58.405Z,55.59
2023-08-10T05:26:58.429Z,49.63
2023-08-10T05:27:58.395Z,56.72
2023-08-10T05:28:58.377Z,47.86
2023-08-10T05:29:58.366Z,54.30
2023-08-10T05:30:58.362Z,50.43
2023-08-10T05:31:58.411Z,58.17
2023-08-10T05:32:58.381Z,52.85
2023-08-10T05:33:58.348Z,48.50
2023-08-10T05:34:58.336Z,54.95
2023-08-10T05:35:58.362Z,51.40
2023-08-10T05:36:58.349Z,43.18
2023-08-10T05:37:58.314Z,43.18
2023-08-10T05:38:58.303Z,48.34
2023-08-10T05:39:58.307Z,53.66
2023-08-10T05:40:58.346Z,47.21
2023-08-10T05:41:58.283Z,45.12
2023-08-10T05:42:58.269Z,47.05
2023-08-10T05:43:58.270Z,51.24
2023-08-10T05:44:58.263Z,44.31
2023-08-10T05:45:58.350Z,53.66
2023-08-10T05:46:58.246Z,48.34
2023-08-10T05:47:58.250Z,49.47
2023-08-10T05:48:58.223Z,48.02
2023-08-10T05:49:58.241Z,49.63
2023-08-10T05:50:58.281Z,51.88
2023-08-10T05:51:58.205Z,47.05
2023-08-10T05:52:58.198Z,46.08
2023-08-10T05:53:58.189Z,51.08
2023-08-10T05:54:58.219Z,48.98
2023-08-10T05:55:58.196Z,48.66
2023-08-10T05:57:00.289Z,53.01
2023-08-10T05:57:59.178Z,50.60
2023-08-10T05:58:58.142Z,51.40
2023-08-10T05:59:59.178Z,52.21
2023-08-10T06:00:58.164Z,53.17
2023-08-10T06:01:58.121Z,48.82
2023-08-10T06:02:58.142Z,52.69
2023-08-10T06:03:58.149Z,49.31
2023-08-10T06:04:58.130Z,55.75
2023-08-10T06:05:58.093Z,49.63
2023-08-10T06:06:58.092Z,52.53
2023-08-10T06:07:58.074Z,51.56
2023-08-10T06:08:58.100Z,57.20
2023-08-10T06:09:58.088Z,50.27
2023-08-10T06:10:58.058Z,48.98
2023-08-10T06:11:58.062Z,58.01
2023-08-10T06:12:58.044Z,55.75
2023-08-10T06:13:58.060Z,50.11
2023-08-10T06:14:58.027Z,51.08
2023-08-10T06:15:58.051Z,47.37
2023-08-10T06:16:58.009Z,53.01
2023-08-10T06:17:58.040Z,48.66
2023-08-10T06:18:58.020Z,50.43
2023-08-10T06:19:59.450Z,44.96
2023-08-10T06:20:59.005Z,54.14
2023-08-10T06:21:57.973Z,44.47
2023-08-10T06:22:57.964Z,47.70
2023-08-10T06:23:57.988Z,48.18
2023-08-10T06:24:57.952Z,53.01
2023-08-10T06:25:57.954Z,52.05
2023-08-10T06:26:57.936Z,50.43
2023-08-10T06:27:57.957Z,53.50
2023-08-10T06:28:57.950Z,51.24
2023-08-10T06:29:57.916Z,45.76
2023-08-10T06:30:57.946Z,46.89
2023-08-10T06:31:57.904Z,44.96
2023-08-10T06:32:57.979Z,50.27
2023-08-10T06:33:57.895Z,49.31
2023-08-10T06:34:57.885Z,52.05
2023-08-10T06:35:57.875Z,48.02
2023-08-10T06:36:57.888Z,49.63
2023-08-10T06:37:57.886Z,50.92
2023-08-10T06:38:57.852Z,51.88
2023-08-10T06:39:57.858Z,45.60
2023-08-10T06:40:57.846Z,49.79
2023-08-10T06:41:57.864Z,48.02
2023-08-10T06:42:57.843Z,51.24
2023-08-10T06:43:57.819Z,47.21
2023-08-10T06:44:57.821Z,42.22
2023-08-10T06:45:57.806Z,45.76
2023-08-10T06:46:57.882Z,42.22
2023-08-10T06:47:57.864Z,52.21
2023-08-10T06:48:57.789Z,48.34
2023-08-10T06:49:57.788Z,52.37
2023-08-10T06:50:57.788Z,47.53
2023-08-10T06:51:57.805Z,51.72
2023-08-10T06:52:57.770Z,46.73
2023-08-10T06:53:57.757Z,51.08
2023-08-10T06:54:57.755Z,48.66
2023-08-10T06:55:58.961Z,48.02
2023-08-10T06:56:58.763Z,44.31
2023-08-10T06:57:57.744Z,46.08
2023-08-10T07:00:33.585Z,49.15
2023-08-10T07:00:59.766Z,46.08
2023-08-10T07:01:57.754Z,48.02
2023-08-10T07:02:57.758Z,41.57
2023-08-10T07:03:57.705Z,42.38
2023-08-10T07:04:57.692Z,44.47
2023-08-10T07:05:57.711Z,45.28
2023-08-10T07:06:57.684Z,50.92
2023-08-10T07:07:57.716Z,45.92
2023-08-10T07:08:57.672Z,44.63
2023-08-10T07:09:57.685Z,47.53
2023-08-10T07:10:57.681Z,45.92
2023-08-10T07:11:57.654Z,49.63
2023-08-10T07:12:57.646Z,49.47
2023-08-10T07:13:57.642Z,42.86
2023-08-10T07:14:57.656Z,47.70
2023-08-10T07:15:57.658Z,52.21
2023-08-10T07:16:57.644Z,42.86
2023-08-10T07:17:57.720Z,40.44
2023-08-10T07:18:57.607Z,40.77
2023-08-10T07:19:57.630Z,46.25
2023-08-10T07:20:57.607Z,48.66
2023-08-10T07:21:57.594Z,43.34
2023-08-10T07:22:57.584Z,47.70
2023-08-10T07:23:57.591Z,63.00
2023-08-10T07:24:57.637Z,58.81
2023-08-10T07:25:57.582Z,58.97
2023-08-10T07:26:57.564Z,59.30
2023-08-10T07:27:57.556Z,58.01
2023-08-10T07:28:57.551Z,62.68
2023-08-10T07:29:57.573Z,56.88
2023-08-10T07:30:57.564Z,48.50
2023-08-10T07:31:57.540Z,47.05
2023-08-10T07:32:57.581Z,51.08
2023-08-10T07:33:57.549Z,48.98
2023-08-10T07:34:57.541Z,51.72
2023-08-10T07:35:57.529Z,47.70
2023-08-10T07:36:57.510Z,49.79
2023-08-10T07:37:57.497Z,53.17
2023-08-10T07:38:57.530Z,45.76
2023-08-10T07:39:57.480Z,42.54
2023-08-10T07:40:57.484Z,54.30
2023-08-10T07:41:57.479Z,45.44
2023-08-10T07:42:57.467Z,49.63
2023-08-10T07:43:57.483Z,50.76
2023-08-10T07:44:57.456Z,41.41
2023-08-10T07:45:57.462Z,47.86
2023-08-10T07:46:57.469Z,48.50
2023-08-10T07:47:57.439Z,51.24
2023-08-10T07:48:57.455Z,42.54
2023-08-10T07:49:57.428Z,50.43
2023-08-10T07:50:57.423Z,49.15
2023-08-10T07:51:57.416Z,47.21
2023-08-10T07:52:57.431Z,49.15
2023-08-10T07:53:57.434Z,48.50
2023-08-10T07:54:57.399Z,48.02
2023-08-10T07:55:57.388Z,53.01
2023-08-10T07:56:57.390Z,41.57
2023-08-10T07:57:57.419Z,49.63
2023-08-10T07:58:57.375Z,45.60
2023-08-10T07:59:57.372Z,49.79
2023-08-10T08:00:57.368Z,40.12
2023-08-10T08:01:57.362Z,41.09
2023-08-10T08:02:57.421Z,50.60
2023-08-10T08:03:57.460Z,47.37
2023-08-10T08:04:57.383Z,51.24
2023-08-10T08:05:57.349Z,48.18
2023-08-10T08:06:58.401Z,51.24
2023-08-10T08:07:57.349Z,57.04
2023-08-10T08:08:57.324Z,58.49
2023-08-10T08:09:57.317Z,49.79
2023-08-10T08:10:57.310Z,50.11
2023-08-10T08:11:57.351Z,47.70
2023-08-10T08:12:57.297Z,47.05
2023-08-10T08:13:57.296Z,50.11
2023-08-10T08:14:57.297Z,40.77
2023-08-10T08:15:57.301Z,54.62
2023-08-10T08:16:57.305Z,47.21
2023-08-10T08:17:57.299Z,50.92
2023-08-10T08:18:57.278Z,44.96
2023-08-10T08:19:57.585Z,49.79
2023-08-10T08:20:57.252Z,48.02
2023-08-10T08:21:57.277Z,55.11
2023-08-10T08:22:57.253Z,49.79
2023-08-10T08:23:57.242Z,48.66
2023-08-10T08:24:57.232Z,47.37
2023-08-10T08:25:57.249Z,43.99
2023-08-10T08:26:57.249Z,49.47
2023-08-10T08:27:57.270Z,47.05
2023-08-10T08:28:57.208Z,43.51
2023-08-10T08:29:57.211Z,49.63
2023-08-10T08:30:57.239Z,47.05
2023-08-10T08:31:57.634Z,50.43
2023-08-10T08:32:58.299Z,48.66
2023-08-10T08:33:57.179Z,44.79
2023-08-10T08:34:57.179Z,45.92
2023-08-10T08:35:57.200Z,40.93
2023-08-10T08:36:57.172Z,45.12
2023-08-10T08:37:57.168Z,45.44
2023-08-10T08:38:57.154Z,48.82
2023-08-10T08:39:57.192Z,44.31
2023-08-10T08:40:57.180Z,49.95
2023-08-10T08:41:57.159Z,51.88
2023-08-10T08:42:57.137Z,46.57
2023-08-10T08:43:57.135Z,46.25
2023-08-10T08:44:57.147Z,44.96
2023-08-10T08:45:57.451Z,45.28
2023-08-10T08:46:57.117Z,52.21
2023-08-10T08:47:57.153Z,55.91
2023-08-10T08:48:57.101Z,51.72
2023-08-10T08:49:57.116Z,52.21
2023-08-10T08:50:57.119Z,45.12
2023-08-10T08:51:57.089Z,43.34
2023-08-10T08:52:57.073Z,53.01
2023-08-10T08:53:57.102Z,49.47
2023-08-10T08:54:57.087Z,49.95
2023-08-10T08:55:57.061Z,51.40
2023-08-10T08:56:57.053Z,54.62
2023-08-10T08:57:57.046Z,49.63
2023-08-10T08:58:57.079Z,49.47
2023-08-10T08:59:57.032Z,47.53
2023-08-10T09:00:57.057Z,45.92
2023-08-10T09:02:01.941Z,47.05
2023-08-10T09:02:58.053Z,54.14
2023-08-10T09:03:57.240Z,45.60
2023-08-10T09:04:57.017Z,51.56
2023-08-10T09:05:56.994Z,48.82
2023-08-10T09:06:56.990Z,46.89
2023-08-10T09:07:57.027Z,49.79
2023-08-10T09:08:57.001Z,43.83
2023-08-10T09:09:56.994Z,41.73
2023-08-10T09:10:56.977Z,45.12
2023-08-10T09:11:56.957Z,46.73
2023-08-10T09:12:56.990Z,40.77
2023-08-10T09:13:56.947Z,41.89
2023-08-10T09:14:56.951Z,45.28
2023-08-10T09:15:57.023Z,47.53
2023-08-10T09:16:56.930Z,46.25
2023-08-10T09:17:56.961Z,47.70
2023-08-10T09:18:56.920Z,50.43
2023-08-10T09:19:56.915Z,46.73
2023-08-10T09:20:56.905Z,43.51
2023-08-10T09:21:56.894Z,48.50
2023-08-10T09:22:56.934Z,52.69
2023-08-10T09:23:56.885Z,50.43
2023-08-10T09:24:56.881Z,48.82
2023-08-10T09:25:56.895Z,50.76
2023-08-10T09:26:56.867Z,49.63
2023-08-10T09:27:56.910Z,55.11
2023-08-10T09:28:56.891Z,48.02
2023-08-10T09:29:56.847Z,54.62
2023-08-10T09:30:56.839Z,55.43
2023-08-10T09:31:56.895Z,52.85
2023-08-10T09:32:56.882Z,51.08
2023-08-10T09:33:56.838Z,52.05
2023-08-10T09:34:56.819Z,47.70
2023-08-10T09:35:56.799Z,51.56
2023-08-10T09:36:56.824Z,52.05
2023-08-10T09:37:56.820Z,53.33
2023-08-10T09:39:01.339Z,49.15
2023-08-10T09:39:57.786Z,50.27
2023-08-10T09:40:56.765Z,53.82
2023-08-10T09:41:57.790Z,47.70
2023-08-10T09:42:56.764Z,52.53
2023-08-10T09:43:56.782Z,48.66
2023-08-10T09:44:56.747Z,48.50
2023-08-10T09:45:56.752Z,47.05
2023-08-10T09:46:56.765Z,45.76
2023-08-10T09:47:56.758Z,50.76
2023-08-10T09:48:56.722Z,44.79
2023-08-10T09:49:57.733Z,48.02
2023-08-10T09:50:56.735Z,48.66
2023-08-10T09:51:56.793Z,48.18
2023-08-10T09:52:56.694Z,56.07
2023-08-10T09:53:56.710Z,54.79
2023-08-10T09:54:56.680Z,56.40
2023-08-10T09:55:56.739Z,47.37
2023-08-10T09:56:56.691Z,50.92
2023-08-10T09:57:56.659Z,44.63
2023-08-10T09:58:56.649Z,49.79
2023-08-10T09:59:56.679Z,42.06
2023-08-10T10:00:56.697Z,43.67
2023-08-10T10:01:56.676Z,49.31
2023-08-10T10:02:56.648Z,46.57
2023-08-10T10:03:56.741Z,55.91
2023-08-10T10:04:56.637Z,52.37
2023-08-10T10:05:56.625Z,51.56
2023-08-10T10:06:56.614Z,50.60
2023-08-10T10:07:56.602Z,50.76
2023-08-10T10:08:56.579Z,49.15
2023-08-10T10:09:56.629Z,56.88
2023-08-10T10:10:56.757Z,50.76
2023-08-10T10:11:56.578Z,53.01
2023-08-10T10:12:56.547Z,54.14
2023-08-10T10:13:56.545Z,58.33
2023-08-10T10:14:56.565Z,59.30
2023-08-10T10:15:56.657Z,57.52
2023-08-10T10:16:56.514Z,56.07
2023-08-10T10:17:56.701Z,54.46
2023-08-10T10:18:56.523Z,54.46
2023-08-10T10:19:56.538Z,58.97
2023-08-10T10:20:56.494Z,54.46
2023-08-10T10:21:56.488Z,54.62
2023-08-10T10:22:56.492Z,54.30
2023-08-10T10:23:56.575Z,53.66
2023-08-10T10:24:56.472Z,50.27
2023-08-10T10:25:56.458Z,53.17
2023-08-10T10:26:56.445Z,55.11
2023-08-10T10:27:56.446Z,53.17
2023-08-10T10:28:56.456Z,54.95
2023-08-10T10:29:56.426Z,60.91
2023-08-10T10:30:56.486Z,59.94
2023-08-10T10:31:56.402Z,61.39
2023-08-10T10:32:56.504Z,58.65
2023-08-10T10:33:56.681Z,58.49
2023-08-10T10:34:56.459Z,54.14
2023-08-10T10:35:57.031Z,52.05
2023-08-10T10:36:56.372Z,52.69
2023-08-10T10:37:56.411Z,49.47
2023-08-10T10:38:56.384Z,51.24
2023-08-10T10:39:56.348Z,58.17
2023-08-10T10:40:56.346Z,53.33
2023-08-10T10:41:56.340Z,53.66
2023-08-10T10:42:56.351Z,51.56
2023-08-10T10:43:56.322Z,54.62
2023-08-10T10:44:56.317Z,54.95
2023-08-10T10:45:56.334Z,58.33
2023-08-10T10:46:56.320Z,54.46
2023-08-10T10:47:56.330Z,56.24
2023-08-10T10:48:56.289Z,53.66
2023-08-10T10:49:56.296Z,51.40
2023-08-10T10:50:57.127Z,51.40
2023-08-10T10:51:56.522Z,50.92
2023-08-10T10:52:56.453Z,53.98
2023-08-10T10:53:56.283Z,53.98
2023-08-10T10:54:56.249Z,53.17
2023-08-10T10:55:56.239Z,51.72
2023-08-10T10:56:56.230Z,47.70
2023-08-10T10:57:56.246Z,51.08
2023-08-10T10:58:56.220Z,49.63
2023-08-10T10:59:56.208Z,50.27
2023-08-10T11:00:56.205Z,46.89
2023-08-10T11:01:56.228Z,47.37
2023-08-10T11:02:56.215Z,45.44
2023-08-10T11:03:56.171Z,43.83
2023-08-10T11:04:56.242Z,44.79
2023-08-10T11:05:56.160Z,44.63
2023-08-10T11:06:56.177Z,46.08
2023-08-10T11:07:56.145Z,48.02
2023-08-10T11:08:56.161Z,51.72
2023-08-10T11:09:56.134Z,49.63
2023-08-10T11:10:56.125Z,46.73
2023-08-10T11:11:56.145Z,47.05
2023-08-10T11:12:56.962Z,45.28
2023-08-10T11:13:56.106Z,48.18
2023-08-10T11:14:56.204Z,48.34
2023-08-10T11:15:56.111Z,52.85
2023-08-10T11:16:58.113Z,51.56
2023-08-10T11:17:57.082Z,48.02
2023-08-10T11:18:56.069Z,49.63
2023-08-10T11:19:56.060Z,49.95
2023-08-10T11:20:56.075Z,47.21
2023-08-10T11:21:56.043Z,45.28
2023-08-10T11:22:56.035Z,47.86
2023-08-10T11:23:56.033Z,47.37
2023-08-10T11:24:56.025Z,46.57
2023-08-10T11:25:56.049Z,49.63
2023-08-10T11:26:56.014Z,51.88
2023-08-10T11:27:56.032Z,42.06
2023-08-10T11:28:55.989Z,44.79
2023-08-10T11:29:56.008Z,43.67
2023-08-10T11:30:56.393Z,43.18
2023-08-10T11:31:58.842Z,48.02
2023-08-10T11:32:56.053Z,46.57
2023-08-10T11:33:56.001Z,49.47
2023-08-10T11:34:55.988Z,48.50
2023-08-10T11:35:55.939Z,44.15
2023-08-10T11:36:55.932Z,49.15
2023-08-10T11:37:55.926Z,47.53
2023-08-10T11:38:55.924Z,58.49
2023-08-10T11:39:55.935Z,61.71
2023-08-10T11:40:55.890Z,60.75
2023-08-10T11:41:56.893Z,60.91
2023-08-10T11:42:55.888Z,59.62
2023-08-10T11:43:55.908Z,60.59
2023-08-10T11:44:55.896Z,60.10
2023-08-10T11:45:55.871Z,60.42
2023-08-10T11:46:55.856Z,59.78
2023-08-10T11:48:57.866Z,63.00
2023-08-10T11:49:55.829Z,61.87
2023-08-10T11:50:55.826Z,61.55
2023-08-10T11:51:55.825Z,60.26
2023-08-10T11:52:55.811Z,60.42
2023-08-10T11:53:55.840Z,59.94
2023-08-10T11:54:55.785Z,60.10
2023-08-10T11:55:56.789Z,60.10
2023-08-10T11:56:55.780Z,60.26
2023-08-10T11:57:55.769Z,60.42
2023-08-10T11:58:55.796Z,60.59
2023-08-10T11:59:55.755Z,61.07
2023-08-10T12:00:55.746Z,62.04
2023-08-10T12:01:55.794Z,60.59
2023-08-10T12:02:55.778Z,61.23
2023-08-10T12:03:57.638Z,60.75
2023-08-10T12:04:56.724Z,61.07
2023-08-10T12:05:55.717Z,60.42
2023-08-10T12:06:55.698Z,60.59
2023-08-10T12:07:55.736Z,60.75
2023-08-10T12:08:55.719Z,60.75
2023-08-10T12:09:55.677Z,60.59
2023-08-10T12:10:55.696Z,61.87
2023-08-10T12:11:57.400Z,61.87
2023-08-10T12:12:56.682Z,62.04
2023-08-10T12:13:55.671Z,65.90
2023-08-10T12:14:55.647Z,65.90
2023-08-10T12:15:55.680Z,62.04
2023-08-10T12:16:55.652Z,60.26
2023-08-10T12:17:55.812Z,60.26
2023-08-10T12:18:55.730Z,60.26
2023-08-10T12:19:55.599Z,60.91
2023-08-10T12:20:55.599Z,60.59
2023-08-10T12:21:55.610Z,61.55
2023-08-10T12:22:55.584Z,59.14
2023-08-10T12:23:55.577Z,58.33
2023-08-10T12:24:55.565Z,57.04
2023-08-10T12:25:55.557Z,57.69
2023-08-10T12:26:55.577Z,55.27
2023-08-10T12:27:55.598Z,57.85
2023-08-10T12:28:55.847Z,52.53
2023-08-10T12:29:55.530Z,55.11
2023-08-10T12:30:55.561Z,53.66
2023-08-10T12:31:55.595Z,64.29
2023-08-10T12:32:55.591Z,63.81
2023-08-10T12:33:55.503Z,62.84
2023-08-10T12:34:55.493Z,62.68
2023-08-10T12:35:55.510Z,58.81
2023-08-10T12:36:55.476Z,56.56
2023-08-10T12:37:55.493Z,53.50
2023-08-10T12:38:55.469Z,56.07
2023-08-10T12:39:55.455Z,56.72
2023-08-10T12:40:55.539Z,56.88
2023-08-10T12:41:55.442Z,59.14
2023-08-10T12:42:55.435Z,58.65
2023-08-10T12:43:55.424Z,56.24
2023-08-10T12:44:55.419Z,58.97
2023-08-10T12:45:55.456Z,58.17
2023-08-10T12:46:55.406Z,49.15
2023-08-10T12:47:55.419Z,50.76
2023-08-10T12:48:55.391Z,51.08
2023-08-10T12:49:55.413Z,49.31
2023-08-10T12:50:55.407Z,46.25
2023-08-10T12:51:55.372Z,46.41
2023-08-10T12:52:55.368Z,50.43
2023-08-10T12:53:55.351Z,48.34